Time;durP1;ratioP1;P1;durP2;ratioP2;P2;SDS_P1;SDS_P2;PMS_P1;PMS_P2;Temp;Humidity;BMP_temperature;BMP_pressure;BME280_temperature;BME280_humidity;BME280_pressure;Samples;Min_cycle;Max_cycle;Signal;HPM_P1;HPM_P2
2023/03/15 00:01:19;;;;;;;8.88;2.00;;;4.30;99.90;;;;;;4936306;29;20182;-73
2023/03/15 00:03:46;;;;;;;8.25;1.65;;;4.20;99.90;;;;;;4937479;29;20179;-73
2023/03/15 00:06:13;;;;;;;7.15;1.75;;;4.20;99.90;;;;;;4937656;29;20239;-73
2023/03/15 00:08:39;;;;;;;11.73;1.73;;;4.20;99.90;;;;;;4938384;29;20590;-73
2023/03/15 00:11:05;;;;;;;11.32;1.73;;;4.20;99.90;;;;;;4937770;29;20176;-73
2023/03/15 00:13:32;;;;;;;10.07;1.70;;;4.20;99.90;;;;;;4936042;29;20717;-73
2023/03/15 00:16:00;;;;;;;9.27;1.50;;;4.20;99.90;;;;;;4937079;29;20179;-73
2023/03/15 00:18:26;;;;;;;12.82;2.10;;;4.20;99.90;;;;;;4936706;29;20183;-74
2023/03/15 00:20:52;;;;;;;9.13;1.52;;;4.20;99.90;;;;;;4937122;29;20175;-73
2023/03/15 00:23:18;;;;;;;10.48;2.10;;;4.20;99.90;;;;;;4937064;29;20643;-73
2023/03/15 00:25:48;;;;;;;8.63;1.45;;;4.20;99.90;;;;;;4937227;29;20691;-73
2023/03/15 00:28:14;;;;;;;14.30;1.98;;;4.10;99.90;;;;;;4936211;29;20545;-73
2023/03/15 00:30:40;;;;;;;9.68;1.60;;;4.20;99.90;;;;;;4935953;29;20278;-74
2023/03/15 00:33:07;;;;;;;10.55;1.90;;;4.10;99.90;;;;;;4935873;29;20621;-73
2023/03/15 00:35:38;;;;;;;11.32;1.83;;;4.10;99.90;;;;;;4936832;29;20187;-73
2023/03/15 00:38:03;;;;;;;15.68;1.98;;;4.20;99.90;;;;;;4937588;29;20179;-73
2023/03/15 00:40:29;;;;;;;11.07;1.75;;;4.10;99.90;;;;;;4935621;29;20186;-75
2023/03/15 00:42:57;;;;;;;13.27;1.90;;;4.10;99.90;;;;;;4937453;29;20183;-75
2023/03/15 00:45:23;;;;;;;10.77;1.80;;;4.10;99.90;;;;;;4936720;29;20653;-73
2023/03/15 00:47:51;;;;;;;15.18;2.03;;;4.10;99.90;;;;;;4935866;29;20183;-74
2023/03/15 00:50:17;;;;;;;10.45;1.60;;;4.10;99.90;;;;;;4936800;29;20190;-74
2023/03/15 00:52:42;;;;;;;10.80;1.83;;;4.00;99.90;;;;;;4935453;29;20215;-73
2023/03/15 00:55:14;;;;;;;8.85;1.48;;;4.10;99.90;;;;;;4936260;29;20187;-73
2023/03/15 00:57:44;;;;;;;10.73;1.58;;;4.10;99.90;;;;;;4937313;29;20277;-74
2023/03/15 01:00:14;;;;;;;11.63;1.40;;;4.10;99.90;;;;;;4935524;29;20204;-74
2023/03/15 01:02:40;;;;;;;9.32;1.70;;;4.10;99.90;;;;;;4935374;29;20187;-74
2023/03/15 01:05:08;;;;;;;7.85;1.15;;;4.10;99.90;;;;;;4935321;29;20619;-75
2023/03/15 01:07:34;;;;;;;7.43;1.50;;;4.10;99.90;;;;;;4935423;29;20187;-75
2023/03/15 01:10:01;;;;;;;12.77;1.65;;;4.10;99.90;;;;;;4936549;29;20193;-74
2023/03/15 01:12:34;;;;;;;11.43;1.52;;;4.10;99.90;;;;;;4935101;29;20403;-74
2023/03/15 01:15:05;;;;;;;9.80;1.50;;;4.00;99.90;;;;;;4936462;29;20262;-75
2023/03/15 01:17:31;;;;;;;9.27;1.50;;;4.10;99.90;;;;;;4935937;29;20206;-74
2023/03/15 01:19:58;;;;;;;11.23;1.48;;;4.10;99.90;;;;;;4920086;29;20512;-76
2023/03/15 01:22:23;;;;;;;11.85;1.13;;;4.00;99.90;;;;;;4935375;29;20187;-73
2023/03/15 01:24:49;;;;;;;10.73;1.50;;;4.00;99.90;;;;;;4935126;29;20207;-75
2023/03/15 01:27:17;;;;;;;10.00;1.42;;;4.00;99.90;;;;;;4936565;29;20178;-73
2023/03/15 01:29:43;;;;;;;9.65;1.63;;;4.00;99.90;;;;;;4935110;29;20187;-73
2023/03/15 01:32:11;;;;;;;8.18;1.50;;;4.00;99.90;;;;;;4934896;29;20226;-74
2023/03/15 01:34:37;;;;;;;11.50;1.40;;;3.90;99.90;;;;;;4934879;29;20183;-73
2023/03/15 01:37:03;;;;;;;11.60;1.45;;;3.90;99.90;;;;;;4935890;29;20650;-73
2023/03/15 01:39:37;;;;;;;7.05;1.13;;;3.90;99.90;;;;;;4935574;29;20179;-74
2023/03/15 01:42:03;;;;;;;8.20;1.80;;;3.80;99.90;;;;;;4934715;29;20595;-75
2023/03/15 01:44:49;;;;;;;11.32;1.70;;;3.80;99.90;;;;;;4950382;28;20198;-73
2023/03/15 01:47:15;;;;;;;11.20;1.60;;;3.80;99.90;;;;;;4934930;29;20237;-73
2023/03/15 01:49:46;;;;;;;11.32;1.50;;;3.70;99.90;;;;;;4934802;29;20167;-75
2023/03/15 01:52:16;;;;;;;9.85;1.45;;;3.70;99.90;;;;;;4936359;29;20194;-73
2023/03/15 01:55:05;;;;;;;16.70;1.60;;;3.70;99.90;;;;;;4934846;29;20179;-77
2023/03/15 01:57:37;;;;;;;13.05;1.80;;;3.70;99.90;;;;;;4935655;29;20258;-74
2023/03/15 02:00:17;;;;;;;10.00;1.60;;;3.70;99.90;;;;;;4919883;29;20176;-74
2023/03/15 02:02:51;;;;;;;12.45;1.48;;;3.70;99.90;;;;;;4934891;29;20647;-73
2023/03/15 02:05:31;;;;;;;10.60;1.50;;;3.70;99.90;;;;;;4935185;29;20524;-75
2023/03/15 02:07:58;;;;;;;13.02;2.08;;;3.70;99.90;;;;;;4934806;29;20261;-75
2023/03/15 02:10:36;;;;;;;14.23;1.88;;;3.80;99.90;;;;;;4934516;29;20184;-73
2023/03/15 02:13:04;;;;;;;10.48;1.50;;;3.80;99.90;;;;;;4951134;28;20535;-73
2023/03/15 02:15:30;;;;;;;15.63;1.55;;;3.80;99.90;;;;;;4934459;29;20192;-74
2023/03/15 02:17:57;;;;;;;13.65;1.90;;;3.80;99.90;;;;;;4934504;29;20184;-75
2023/03/15 02:21:05;;;;;;;12.07;1.80;;;3.80;99.90;;;;;;4918664;29;20183;-77
2023/03/15 02:23:32;;;;;;;13.88;1.77;;;3.80;99.90;;;;;;4934691;29;20670;-74
2023/03/15 02:26:13;;;;;;;12.63;1.83;;;3.80;99.90;;;;;;4935006;29;20211;-75
2023/03/15 02:28:40;;;;;;;16.50;1.85;;;3.80;99.90;;;;;;4935719;29;20179;-74
2023/03/15 02:31:06;;;;;;;9.48;1.70;;;3.80;99.90;;;;;;4934311;29;20179;-75
2023/03/15 02:33:40;;;;;;;14.13;1.77;;;3.70;99.90;;;;;;4934293;29;20223;-75
2023/03/15 02:36:24;;;;;;;12.27;1.92;;;3.80;99.90;;;;;;4936166;29;20571;-75
2023/03/15 02:38:51;;;;;;;13.07;2.03;;;3.70;99.90;;;;;;4935571;29;20183;-74
2023/03/15 02:41:24;;;;;;;11.30;1.98;;;3.80;99.90;;;;;;4934338;29;20218;-74
2023/03/15 02:43:54;;;;;;;9.20;1.73;;;3.80;99.90;;;;;;4934608;29;20175;-75
2023/03/15 02:46:20;;;;;;;9.88;1.50;;;3.70;99.90;;;;;;4934442;29;20516;-74
2023/03/15 02:48:48;;;;;;;19.63;2.03;;;3.70;99.90;;;;;;4934154;29;20179;-74
2023/03/15 02:51:22;;;;;;;11.65;2.00;;;3.70;99.90;;;;;;4935640;29;20179;-75
2023/03/15 02:53:49;;;;;;;9.52;1.52;;;3.70;99.90;;;;;;4933885;29;20286;-74
2023/03/15 02:56:16;;;;;;;10.48;1.52;;;3.70;99.90;;;;;;4934911;29;20218;-74
2023/03/15 02:58:45;;;;;;;6.65;1.50;;;3.70;99.90;;;;;;4939431;29;20671;-74
2023/03/15 03:01:14;;;;;;;11.45;1.77;;;3.70;99.90;;;;;;4938318;29;20287;-74
2023/03/15 03:03:41;;;;;;;9.73;1.55;;;3.60;99.90;;;;;;4938920;29;20194;-75
2023/03/15 03:06:07;;;;;;;8.02;1.50;;;3.60;99.90;;;;;;4953618;28;20214;-74
2023/03/15 03:08:35;;;;;;;10.02;1.33;;;3.60;99.90;;;;;;4953652;28;20176;-74
2023/03/15 03:11:01;;;;;;;7.18;1.30;;;3.50;99.90;;;;;;4953456;28;20258;-75
2023/03/15 03:13:28;;;;;;;9.05;1.50;;;3.50;99.90;;;;;;4937383;29;20303;-73
2023/03/15 03:15:57;;;;;;;10.93;1.52;;;3.50;99.90;;;;;;4938768;29;20223;-73
2023/03/15 03:18:27;;;;;;;12.02;1.30;;;3.40;99.90;;;;;;4938161;29;20230;-73
2023/03/15 03:20:57;;;;;;;10.98;1.40;;;3.40;99.90;;;;;;4937308;29;20536;-75
2023/03/15 03:23:24;;;;;;;8.73;1.20;;;3.40;99.90;;;;;;4937218;29;20238;-73
2023/03/15 03:25:52;;;;;;;8.48;1.50;;;3.40;99.90;;;;;;4937310;29;20627;-74
2023/03/15 03:28:19;;;;;;;6.82;1.50;;;3.30;99.90;;;;;;4938444;29;20183;-74
2023/03/15 03:30:46;;;;;;;8.55;1.40;;;3.40;99.90;;;;;;4938353;29;20184;-73
2023/03/15 03:33:14;;;;;;;15.25;1.85;;;3.40;99.90;;;;;;4937250;29;20238;-74
2023/03/15 03:35:40;;;;;;;10.18;1.65;;;3.30;99.90;;;;;;4938359;29;20179;-74
2023/03/15 03:38:10;;;;;;;7.63;1.50;;;3.30;99.90;;;;;;4921201;29;20191;-74
2023/03/15 03:40:39;;;;;;;9.88;1.67;;;3.30;99.90;;;;;;4937849;29;20271;-74
2023/03/15 03:43:07;;;;;;;11.90;1.77;;;3.40;99.90;;;;;;4952855;28;20187;-75
2023/03/15 03:45:33;;;;;;;12.73;1.55;;;3.30;99.90;;;;;;4937924;29;20215;-74
2023/03/15 03:48:00;;;;;;;10.57;1.85;;;3.30;99.90;;;;;;4937614;29;20191;-74
2023/03/15 03:50:27;;;;;;;12.00;1.70;;;3.30;99.90;;;;;;4936504;29;20266;-76
2023/03/15 03:52:53;;;;;;;9.50;1.60;;;3.30;99.90;;;;;;4937339;29;20215;-73
2023/03/15 03:55:26;;;;;;;7.38;1.33;;;3.30;99.90;;;;;;4936942;29;20187;-74
2023/03/15 03:57:53;;;;;;;4.57;1.42;;;3.30;99.90;;;;;;4936292;29;20703;-74
2023/03/15 04:00:35;;;;;;;11.48;1.38;;;3.30;99.90;;;;;;4937390;29;20179;-74
2023/03/15 04:03:01;;;;;;;9.98;1.40;;;3.30;99.90;;;;;;4936769;29;20187;-74
2023/03/15 04:05:29;;;;;;;7.93;1.20;;;3.30;99.90;;;;;;4921185;29;20590;-74
2023/03/15 04:07:55;;;;;;;9.93;1.50;;;3.30;99.90;;;;;;4937931;29;20187;-74
2023/03/15 04:10:25;;;;;;;13.02;1.60;;;3.30;99.90;;;;;;4935993;29;20191;-75
2023/03/15 04:12:55;;;;;;;6.10;1.00;;;3.30;99.90;;;;;;4936276;29;20219;-74
2023/03/15 04:15:23;;;;;;;7.28;1.20;;;3.30;99.90;;;;;;4936657;29;20183;-75
2023/03/15 04:17:54;;;;;;;5.63;1.38;;;3.30;99.90;;;;;;4936836;29;20246;-74
2023/03/15 04:20:23;;;;;;;5.20;1.10;;;3.30;99.90;;;;;;4936724;29;20188;-74
2023/03/15 04:22:49;;;;;;;9.45;1.52;;;3.30;99.90;;;;;;4937175;29;20262;-75
2023/03/15 04:25:25;;;;;;;4.78;1.33;;;3.20;99.90;;;;;;4936739;29;20593;-76
2023/03/15 04:28:09;;;;;;;8.43;1.20;;;3.20;99.90;;;;;;4936935;29;20179;-74
2023/03/15 04:30:57;;;;;;;6.78;1.50;;;3.10;99.90;;;;;;4916710;29;20278;-74
2023/03/15 04:33:41;;;;;;;7.00;1.20;;;3.10;99.90;;;;;;4936951;29;20278;-74
2023/03/15 04:36:27;;;;;;;6.30;1.38;;;3.00;99.90;;;;;;4935860;29;20195;-73
2023/03/15 04:39:08;;;;;;;7.95;1.60;;;3.00;99.90;;;;;;4936998;29;20187;-74
2023/03/15 04:41:57;;;;;;;8.57;1.35;;;3.00;99.90;;;;;;4936675;29;20191;-75
2023/03/15 04:44:52;;;;;;;7.05;1.45;;;3.00;99.90;;;;;;4936408;29;20274;-76
2023/03/15 04:47:57;;;;;;;9.85;1.17;;;3.00;99.90;;;;;;4927370;29;20183;-74
2023/03/15 04:50:32;;;;;;;6.13;1.33;;;3.00;99.90;;;;;;4952241;28;20211;-74
2023/03/15 04:53:13;;;;;;;6.18;1.33;;;2.90;99.90;;;;;;4936214;29;20239;-74
2023/03/15 04:56:05;;;;;;;7.53;1.40;;;2.90;99.90;;;;;;4921077;29;20199;-73
2023/03/15 04:58:50;;;;;;;6.80;1.17;;;3.00;99.90;;;;;;4937240;29;20363;-74
2023/03/15 05:01:44;;;;;;;6.68;1.38;;;3.00;99.90;;;;;;4943502;29;20279;-73
2023/03/15 05:04:30;;;;;;;4.25;1.30;;;3.00;99.90;;;;;;4931810;29;20619;-73
2023/03/15 05:07:16;;;;;;;4.65;1.65;;;3.00;99.90;;;;;;4951972;28;20187;-73
2023/03/15 05:09:54;;;;;;;8.95;1.85;;;3.00;99.90;;;;;;4936632;29;20180;-74
2023/03/15 05:12:41;;;;;;;5.07;1.30;;;3.00;99.90;;;;;;4935355;29;20222;-73
2023/03/15 05:15:42;;;;;;;5.70;1.20;;;3.00;99.90;;;;;;4915020;29;20199;-74
2023/03/15 05:18:35;;;;;;;6.40;1.33;;;3.00;99.90;;;;;;4934584;29;20683;-73
2023/03/15 05:21:39;;;;;;;3.35;1.15;;;3.00;99.90;;;;;;4935330;29;20222;-74
2023/03/15 05:24:25;;;;;;;8.38;1.20;;;3.00;99.90;;;;;;4935713;29;20717;-74
2023/03/15 05:27:12;;;;;;;5.20;1.40;;;3.00;99.90;;;;;;4915656;29;20223;-74
2023/03/15 05:29:51;;;;;;;3.47;1.33;;;3.00;99.90;;;;;;4934944;29;20190;-75
2023/03/15 05:32:38;;;;;;;6.82;1.38;;;3.00;99.90;;;;;;4935584;29;20270;-74
2023/03/15 05:35:13;;;;;;;8.60;1.60;;;3.00;99.90;;;;;;4936279;29;20186;-75
2023/03/15 05:37:44;;;;;;;6.28;1.48;;;2.90;99.90;;;;;;4936782;29;20199;-74
2023/03/15 05:40:31;;;;;;;12.00;1.67;;;2.90;99.90;;;;;;4934742;29;20518;-75
2023/03/15 05:43:06;;;;;;;8.90;1.75;;;2.90;99.90;;;;;;4935526;29;20642;-74
2023/03/15 05:45:54;;;;;;;6.50;1.10;;;2.90;99.90;;;;;;4936638;29;20194;-74
2023/03/15 05:48:38;;;;;;;7.00;1.50;;;2.90;99.90;;;;;;4935766;29;20171;-75
2023/03/15 05:51:26;;;;;;;7.65;1.35;;;2.90;99.90;;;;;;4934644;29;20183;-74
2023/03/15 05:54:07;;;;;;;14.40;1.42;;;2.90;99.90;;;;;;4935196;29;20201;-75
2023/03/15 05:56:47;;;;;;;5.07;1.45;;;2.90;99.90;;;;;;4936102;29;20700;-74
2023/03/15 05:59:42;;;;;;;8.38;1.88;;;2.90;99.90;;;;;;4926718;29;20199;-79
2023/03/15 06:02:26;;;;;;;8.23;1.40;;;2.80;99.90;;;;;;4935635;29;20639;-74
2023/03/15 06:05:13;;;;;;;9.68;1.63;;;2.90;99.90;;;;;;4934740;29;20180;-74
2023/03/15 06:07:39;;;;;;;12.10;1.60;;;2.90;99.90;;;;;;4934458;29;20605;-75
2023/03/15 06:10:06;;;;;;;8.18;1.70;;;2.90;99.90;;;;;;4934478;29;20183;-74
2023/03/15 06:12:32;;;;;;;8.48;1.88;;;2.80;99.90;;;;;;4918780;29;20219;-74
2023/03/15 06:14:58;;;;;;;11.25;2.03;;;2.80;99.90;;;;;;4934654;29;20202;-74
2023/03/15 06:17:24;;;;;;;10.55;1.77;;;2.80;99.90;;;;;;4934448;29;20179;-74
2023/03/15 06:19:49;;;;;;;9.52;1.90;;;2.80;99.90;;;;;;4936062;29;20266;-74
2023/03/15 06:22:18;;;;;;;8.07;1.60;;;2.80;99.90;;;;;;4934341;29;20229;-75
2023/03/15 06:24:51;;;;;;;9.40;1.73;;;2.80;99.90;;;;;;4935061;29;20171;-80
2023/03/15 06:27:20;;;;;;;10.27;2.05;;;2.90;99.90;;;;;;4934864;29;20326;-75
2023/03/15 06:29:50;;;;;;;10.52;2.00;;;2.80;99.90;;;;;;4935381;29;20194;-76
2023/03/15 06:32:18;;;;;;;8.82;1.50;;;2.90;99.90;;;;;;4922126;29;20218;-75
2023/03/15 06:34:44;;;;;;;12.32;1.88;;;2.90;99.90;;;;;;4938742;29;20191;-77
2023/03/15 06:37:12;;;;;;;11.55;1.98;;;2.90;99.90;;;;;;4938210;29;20570;-74
2023/03/15 06:39:39;;;;;;;10.38;1.63;;;2.90;99.90;;;;;;4937915;29;20188;-75
2023/03/15 06:42:07;;;;;;;8.75;1.58;;;2.90;99.90;;;;;;4937819;29;20191;-75
2023/03/15 06:44:34;;;;;;;14.15;1.83;;;3.00;99.90;;;;;;4954588;28;20179;-74
2023/03/15 06:47:04;;;;;;;11.20;1.63;;;3.00;99.90;;;;;;4937783;29;20231;-75
2023/03/15 06:49:29;;;;;;;9.18;1.80;;;3.00;99.90;;;;;;4922010;29;20195;-75
2023/03/15 06:51:56;;;;;;;8.73;1.85;;;3.10;99.90;;;;;;4938051;29;20583;-75
2023/03/15 06:54:22;;;;;;;5.65;1.60;;;3.10;99.90;;;;;;4938276;29;20222;-75
2023/03/15 06:56:48;;;;;;;5.95;1.73;;;3.10;99.90;;;;;;4922245;29;20544;-74
2023/03/15 06:59:13;;;;;;;9.05;2.05;;;3.20;99.90;;;;;;4939098;29;20183;-74
2023/03/15 07:01:39;;;;;;;8.27;1.85;;;3.20;99.90;;;;;;4938165;29;20235;-76
2023/03/15 07:04:05;;;;;;;5.90;1.40;;;3.30;99.90;;;;;;4938938;29;20187;-74
2023/03/15 07:06:32;;;;;;;7.50;1.65;;;3.30;99.90;;;;;;4937967;29;20190;-76
2023/03/15 07:08:57;;;;;;;6.13;1.60;;;3.30;99.90;;;;;;4938599;29;20266;-74
2023/03/15 07:11:23;;;;;;;6.82;1.60;;;3.40;99.90;;;;;;4937071;29;20311;-77
2023/03/15 07:13:49;;;;;;;5.93;1.35;;;3.50;99.90;;;;;;4938517;29;20278;-74
2023/03/15 07:16:15;;;;;;;17.90;2.10;;;3.60;99.90;;;;;;4921481;29;20227;-75
2023/03/15 07:18:41;;;;;;;11.38;2.15;;;3.60;99.90;;;;;;4938449;29;20187;-74
2023/03/15 07:21:07;;;;;;;7.13;1.70;;;3.80;99.90;;;;;;4938627;29;20180;-77
2023/03/15 07:23:33;;;;;;;8.73;1.65;;;3.90;99.90;;;;;;4937092;29;20286;-75
2023/03/15 07:25:59;;;;;;;9.13;1.50;;;4.10;99.90;;;;;;4937146;29;20279;-75
2023/03/15 07:28:25;;;;;;;7.18;1.45;;;4.30;99.90;;;;;;4938839;29;20176;-75
2023/03/15 07:31:02;;;;;;;9.15;1.80;;;4.50;99.90;;;;;;4937987;29;20197;-78
2023/03/15 07:33:30;;;;;;;5.35;1.73;;;4.70;99.90;;;;;;4937900;29;20666;-74
2023/03/15 07:35:56;;;;;;;9.80;1.98;;;4.90;99.90;;;;;;4937426;29;20254;-75
2023/03/15 07:38:24;;;;;;;9.50;2.28;;;5.10;99.90;;;;;;4936790;29;20179;-75
2023/03/15 07:40:50;;;;;;;9.07;1.90;;;5.40;99.90;;;;;;4936765;29;20238;-75
2023/03/15 07:43:15;;;;;;;13.43;1.80;;;5.70;99.90;;;;;;4936891;29;20191;-76
2023/03/15 07:45:41;;;;;;;7.90;1.73;;;6.00;99.90;;;;;;4936544;29;20202;-76
2023/03/15 07:48:07;;;;;;;10.35;2.17;;;6.30;99.90;;;;;;4936553;29;20184;-76
2023/03/15 07:50:33;;;;;;;11.50;2.63;;;6.60;99.90;;;;;;4938543;29;20234;-75
2023/03/15 07:52:59;;;;;;;11.95;2.28;;;6.90;99.90;;;;;;4937626;29;20231;-75
2023/03/15 07:55:25;;;;;;;12.63;2.67;;;7.20;99.90;;;;;;4938257;29;20279;-78
2023/03/15 07:57:51;;;;;;;10.38;2.08;;;7.40;99.90;;;;;;4937860;29;20318;-76
2023/03/15 08:00:18;;;;;;;6.90;2.08;;;7.50;99.90;;;;;;4937587;29;20183;-80
2023/03/15 08:02:44;;;;;;;14.77;2.25;;;7.80;99.90;;;;;;4952278;29;20258;-76
2023/03/15 08:05:10;;;;;;;9.55;2.10;;;8.00;99.90;;;;;;4937977;29;20265;-76
2023/03/15 08:07:36;;;;;;;9.07;2.10;;;8.20;99.90;;;;;;4937812;29;20179;-75
2023/03/15 08:10:05;;;;;;;9.18;1.98;;;8.50;99.90;;;;;;4937687;29;20270;-75
2023/03/15 08:12:32;;;;;;;5.13;1.35;;;8.70;99.90;;;;;;4920697;29;20207;-79
2023/03/15 08:14:57;;;;;;;13.60;2.47;;;8.90;99.90;;;;;;4938099;29;20186;-76
2023/03/15 08:17:23;;;;;;;9.05;2.28;;;9.10;99.90;;;;;;4937588;29;20183;-75
2023/03/15 08:19:49;;;;;;;9.60;1.77;;;9.30;99.90;;;;;;4937650;29;20636;-75
2023/03/15 08:22:15;;;;;;;13.50;2.05;;;9.50;99.90;;;;;;4938065;29;20623;-75
2023/03/15 08:24:41;;;;;;;15.15;2.25;;;9.60;99.90;;;;;;4937179;29;20191;-77
2023/03/15 08:27:07;;;;;;;9.98;1.80;;;9.70;99.90;;;;;;4937663;29;20750;-77
2023/03/15 08:29:33;;;;;;;8.70;1.80;;;9.80;99.90;;;;;;4937413;29;20179;-77
2023/03/15 08:31:58;;;;;;;9.75;2.00;;;9.90;99.90;;;;;;4936008;29;20293;-78
2023/03/15 08:34:24;;;;;;;7.45;2.20;;;10.00;99.90;;;;;;4904500;29;20234;-77
2023/03/15 08:36:50;;;;;;;8.90;1.65;;;10.30;99.90;;;;;;4937047;29;20194;-76
2023/03/15 08:39:16;;;;;;;10.32;2.13;;;10.40;99.90;;;;;;4936893;29;20226;-78
2023/03/15 08:41:42;;;;;;;7.35;1.73;;;10.60;99.90;;;;;;4937498;28;20228;-75
2023/03/15 08:44:09;;;;;;;6.10;1.88;;;10.90;99.90;;;;;;4935926;29;20187;-79
2023/03/15 08:46:34;;;;;;;7.65;1.90;;;11.10;99.90;;;;;;4937292;29;20191;-76
2023/03/15 08:49:01;;;;;;;7.13;1.67;;;11.40;99.90;;;;;;4937033;29;20591;-75
2023/03/15 08:51:28;;;;;;;8.40;1.85;;;11.60;99.90;;;;;;4935657;29;20190;-75
2023/03/15 08:53:54;;;;;;;7.97;2.15;;;11.80;99.90;;;;;;4934902;29;20250;-75
2023/03/15 08:56:20;;;;;;;7.03;1.90;;;11.90;99.90;;;;;;4936045;29;20612;-75
2023/03/15 08:58:47;;;;;;;8.65;1.85;;;12.20;99.90;;;;;;4937537;29;20238;-75
2023/03/15 09:01:13;;;;;;;6.68;1.70;;;12.40;99.90;;;;;;4936449;29;20175;-78
2023/03/15 09:03:41;;;;;;;7.13;1.80;;;12.60;99.90;;;;;;4919785;29;20662;-77
2023/03/15 09:06:08;;;;;;;6.40;2.00;;;12.80;99.90;;;;;;4936494;29;20255;-74
2023/03/15 09:08:33;;;;;;;9.00;1.63;;;12.90;99.30;;;;;;4935120;29;20206;-75
2023/03/15 09:11:00;;;;;;;6.22;1.50;;;13.10;98.80;;;;;;4936247;29;20622;-77
2023/03/15 09:13:27;;;;;;;5.15;1.48;;;13.30;98.40;;;;;;4919133;29;20565;-78
2023/03/15 09:15:55;;;;;;;7.47;1.55;;;13.50;97.20;;;;;;4935330;29;20215;-75
2023/03/15 09:18:21;;;;;;;7.93;1.60;;;13.60;96.60;;;;;;4936506;29;20262;-74
2023/03/15 09:20:47;;;;;;;6.15;1.60;;;13.80;96.10;;;;;;4936527;29;20617;-74
2023/03/15 09:23:13;;;;;;;6.55;1.90;;;14.10;95.20;;;;;;4936198;29;20188;-75
2023/03/15 09:25:39;;;;;;;9.10;1.70;;;14.30;93.40;;;;;;4935826;29;20274;-75
2023/03/15 09:28:08;;;;;;;6.35;1.65;;;14.40;92.70;;;;;;4934886;29;20683;-76
2023/03/15 09:30:35;;;;;;;9.82;1.80;;;14.60;91.90;;;;;;4935943;29;20182;-75
2023/03/15 09:33:01;;;;;;;9.77;1.75;;;14.70;91.30;;;;;;4935844;29;20226;-75
2023/03/15 09:35:27;;;;;;;8.20;1.70;;;14.70;90.40;;;;;;4936553;29;20215;-75
2023/03/15 09:37:53;;;;;;;10.75;1.75;;;14.80;90.30;;;;;;4934528;29;20210;-75
2023/03/15 09:40:21;;;;;;;7.95;1.23;;;14.90;88.40;;;;;;4935633;29;20175;-75
2023/03/15 09:43:02;;;;;;;7.95;1.70;;;14.90;86.70;;;;;;4935907;29;20184;-79
2023/03/15 09:45:49;;;;;;;11.95;2.03;;;14.90;82.10;;;;;;4918849;29;20176;-76
2023/03/15 09:48:19;;;;;;;9.07;1.70;;;15.10;82.40;;;;;;4936214;29;20195;-75
2023/03/15 09:51:03;;;;;;;7.88;1.70;;;15.20;82.60;;;;;;4935517;29;20654;-75
2023/03/15 09:54:00;;;;;;;6.20;1.35;;;15.40;79.90;;;;;;4935712;29;20303;-76
2023/03/15 09:56:44;;;;;;;6.22;1.40;;;15.50;79.40;;;;;;4931085;29;20727;-75
2023/03/15 09:59:11;;;;;;;5.55;1.50;;;15.80;76.30;;;;;;4936434;29;20273;-74
2023/03/15 10:01:39;;;;;;;5.30;1.58;;;15.90;77.10;;;;;;4935570;29;20183;-75
2023/03/15 10:04:09;;;;;;;5.25;1.90;;;16.10;74.90;;;;;;4935918;29;20179;-80
2023/03/15 10:06:38;;;;;;;2.63;1.20;;;16.30;73.50;;;;;;4935195;29;20175;-82
2023/03/15 10:09:11;;;;;;;5.57;1.25;;;16.40;70.40;;;;;;4935694;29;20221;-79
2023/03/15 10:12:11;;;;;;;4.20;1.40;;;16.40;69.60;;;;;;4935514;29;20168;-76
2023/03/15 10:15:20;;;;;;;12.18;1.70;;;16.30;67.70;;;;;;4935897;29;20187;-77
2023/03/15 10:17:58;;;;;;;7.88;1.50;;;16.30;66.70;;;;;;4936219;29;20164;-79
2023/03/15 10:20:34;;;;;;;5.47;1.50;;;16.30;66.30;;;;;;4918715;29;20179;-75
2023/03/15 10:23:21;;;;;;;6.30;1.45;;;16.30;64.00;;;;;;4935732;29;20171;-75
2023/03/15 10:25:50;;;;;;;6.97;1.52;;;16.20;63.50;;;;;;4934727;29;20171;-78
2023/03/15 10:28:21;;;;;;;9.15;1.70;;;16.20;63.80;;;;;;4935155;29;20183;-77
2023/03/15 10:30:50;;;;;;;6.85;1.38;;;16.40;63.70;;;;;;4935664;29;20274;-76
2023/03/15 10:33:18;;;;;;;9.13;1.67;;;16.60;62.40;;;;;;4935430;29;20271;-77
2023/03/15 10:35:44;;;;;;;5.18;1.52;;;16.60;61.10;;;;;;4935334;29;20647;-76
2023/03/15 10:38:21;;;;;;;7.55;1.65;;;16.60;60.80;;;;;;4935474;29;20218;-77
2023/03/15 10:40:52;;;;;;;5.95;1.48;;;16.60;61.00;;;;;;4935294;29;20172;-75
2023/03/15 10:43:40;;;;;;;9.63;1.83;;;16.80;61.40;;;;;;4935556;29;20237;-75
2023/03/15 10:46:10;;;;;;;7.22;1.60;;;16.60;60.10;;;;;;4935397;29;20172;-77
2023/03/15 10:48:59;;;;;;;8.52;1.58;;;16.30;59.70;;;;;;4935229;29;20176;-77
2023/03/15 10:51:37;;;;;;;8.13;1.40;;;16.20;60.00;;;;;;4935637;29;20184;-76
2023/03/15 10:54:10;;;;;;;8.82;1.77;;;16.30;60.60;;;;;;4935244;29;20198;-75
2023/03/15 10:57:04;;;;;;;7.53;1.52;;;16.50;59.30;;;;;;4935271;29;20539;-76
2023/03/15 10:59:32;;;;;;;9.05;1.67;;;16.70;59.40;;;;;;4935368;29;20183;-77
2023/03/15 11:02:10;;;;;;;6.68;1.63;;;16.70;59.60;;;;;;4934103;29;20301;-74
2023/03/15 11:04:58;;;;;;;8.63;1.70;;;16.90;58.80;;;;;;4935348;29;20183;-74
2023/03/15 11:07:24;;;;;;;6.53;1.50;;;17.00;58.40;;;;;;4935476;29;20171;-76
2023/03/15 11:10:01;;;;;;;10.43;1.40;;;17.20;58.70;;;;;;4935301;29;20190;-80
2023/03/15 11:12:33;;;;;;;6.53;1.90;;;17.30;58.10;;;;;;4933670;29;20215;-84
2023/03/15 11:15:11;;;;;;;8.88;1.73;;;17.20;58.00;;;;;;4935005;29;20612;-77
2023/03/15 11:17:46;;;;;;;7.40;1.55;;;17.10;58.00;;;;;;4936162;29;20548;-78
2023/03/15 11:20:53;;;;;;;7.28;1.38;;;17.00;57.50;;;;;;4938242;29;20242;-76
2023/03/15 11:23:28;;;;;;;7.47;1.58;;;16.80;56.60;;;;;;4901558;29;20203;-76
2023/03/15 11:25:55;;;;;;;5.85;1.50;;;16.60;57.80;;;;;;4917057;29;20620;-76
2023/03/15 11:28:29;;;;;;;5.88;1.60;;;16.60;57.20;;;;;;4929323;29;20199;-78
2023/03/15 11:31:03;;;;;;;10.60;1.65;;;16.40;56.70;;;;;;4952859;28;20261;-75
2023/03/15 11:33:51;;;;;;;7.53;1.45;;;16.00;57.00;;;;;;4937894;29;20195;-77
2023/03/15 11:36:20;;;;;;;8.52;1.75;;;15.70;57.70;;;;;;4938605;29;20178;-78
2023/03/15 11:38:46;;;;;;;9.50;1.58;;;15.40;57.10;;;;;;4936568;29;20179;-77
2023/03/15 11:41:35;;;;;;;6.32;1.42;;;15.20;57.50;;;;;;4938247;29;20189;-75
2023/03/15 11:44:35;;;;;;;6.55;1.50;;;15.10;57.70;;;;;;4938542;29;20175;-76
2023/03/15 11:47:09;;;;;;;11.95;1.58;;;15.10;59.40;;;;;;4936546;29;20270;-76
2023/03/15 11:49:54;;;;;;;9.85;1.80;;;15.20;59.00;;;;;;4937750;29;20171;-75
2023/03/15 11:52:23;;;;;;;5.68;1.33;;;15.20;58.70;;;;;;4936280;29;20215;-75
2023/03/15 11:54:50;;;;;;;7.03;1.42;;;15.20;58.30;;;;;;4937699;29;20187;-75
2023/03/15 11:57:28;;;;;;;5.53;1.38;;;15.20;57.80;;;;;;4937827;29;20261;-75
2023/03/15 12:00:35;;;;;;;8.10;1.30;;;15.10;56.90;;;;;;4937338;29;20194;-76
2023/03/15 12:03:27;;;;;;;8.82;1.90;;;15.00;57.20;;;;;;4938053;29;20187;-74
2023/03/15 12:06:17;;;;;;;5.30;1.60;;;14.80;57.50;;;;;;4937381;29;20627;-77
2023/03/15 12:08:53;;;;;;;8.48;2.45;;;14.80;58.10;;;;;;4936935;29;20512;-75
2023/03/15 12:11:21;;;;;;;8.35;2.00;;;14.80;58.10;;;;;;4937179;29;20203;-76
2023/03/15 12:14:39;;;;;;;8.82;1.85;;;14.80;58.10;;;;;;4937557;29;20233;-74
2023/03/15 12:17:23;;;;;;;8.32;1.60;;;14.80;57.70;;;;;;4931409;29;20202;-75
2023/03/15 12:20:10;;;;;;;10.82;2.47;;;14.80;57.30;;;;;;4937217;29;20201;-75
2023/03/15 12:23:02;;;;;;;7.25;1.90;;;14.80;58.10;;;;;;4935668;29;20266;-75
2023/03/15 12:25:34;;;;;;;6.82;1.30;;;14.80;57.50;;;;;;4938291;29;20203;-74
2023/03/15 12:28:07;;;;;;;3.30;1.30;;;14.80;57.50;;;;;;4920222;29;20179;-75
2023/03/15 12:30:44;;;;;;;6.30;1.55;;;14.80;57.10;;;;;;4936801;29;20226;-76
2023/03/15 12:33:17;;;;;;;6.20;1.38;;;14.80;57.00;;;;;;4920224;29;20222;-77
2023/03/15 12:35:44;;;;;;;8.60;1.63;;;14.80;56.70;;;;;;4937154;29;20175;-74
2023/03/15 12:38:22;;;;;;;5.80;1.38;;;14.70;56.00;;;;;;4937969;29;20176;-74
2023/03/15 12:40:57;;;;;;;6.00;1.30;;;14.70;56.00;;;;;;4936829;29;20262;-75
2023/03/15 12:43:43;;;;;;;8.30;1.70;;;14.60;55.90;;;;;;4937092;29;20193;-74
2023/03/15 12:46:35;;;;;;;9.05;1.50;;;14.50;56.30;;;;;;4937079;29;20706;-74
2023/03/15 12:49:10;;;;;;;4.43;1.23;;;14.60;56.90;;;;;;4933576;29;20642;-75
2023/03/15 12:51:53;;;;;;;6.75;1.50;;;14.60;57.10;;;;;;4936670;29;20186;-74
2023/03/15 12:54:22;;;;;;;8.43;1.90;;;14.60;56.50;;;;;;4936863;29;20181;-74
2023/03/15 12:56:53;;;;;;;6.88;1.45;;;14.60;56.60;;;;;;4936410;29;20183;-78
2023/03/15 12:59:42;;;;;;;8.02;1.63;;;14.60;56.50;;;;;;4937056;29;20245;-74
2023/03/15 13:02:33;;;;;;;4.40;1.35;;;14.60;55.80;;;;;;4937028;29;20172;-77
2023/03/15 13:05:08;;;;;;;7.97;1.50;;;14.60;55.80;;;;;;4920138;29;20625;-75
2023/03/15 13:07:55;;;;;;;9.60;1.35;;;14.50;55.80;;;;;;4936644;29;20195;-74
2023/03/15 13:10:31;;;;;;;5.93;1.40;;;14.40;55.30;;;;;;4936225;29;20186;-73
2023/03/15 13:13:07;;;;;;;6.70;1.90;;;14.30;55.50;;;;;;4937033;29;20202;-76
2023/03/15 13:15:42;;;;;;;4.85;1.52;;;14.20;55.80;;;;;;4936198;29;20175;-74
2023/03/15 13:18:17;;;;;;;8.45;1.90;;;14.10;56.00;;;;;;4936700;29;20608;-74
2023/03/15 13:21:22;;;;;;;5.82;1.50;;;14.10;56.20;;;;;;4935918;29;20270;-75